Decoded Metar for LTCR (MARDIN in TURKEY) (IATA:) | Meteo·Mobile Aviation Weather
aviador You're here:

LTCR Decoded Metar

MARDIN in TURKEY
Report Time2018-10-17 05:50:00
UTC Time2018-10-17 06:10:20
Flight Rules vfr VFR
Wind020° at 09 kt
W.Decomp.*RWY 03: 8.7 kt HW 2.3 kt LCW
W.Rank020° ranks 11
Current wind is above 020° avg. (7.6)
Visibility9999 m
Phenomena:N/A
Clouds:Few 040 Hf
Scattered 100 Hf
Expected CloudBase > 8,000 ft AGL from Temp-Dew spread
CeilingNone
Temp27°C (ISA +15)
Dew Point07°C (28% RH)
Heat Index26.3°C
AAT23.0°C
QNH1018 hPa
Density Alt3,474 ft
Elevation1,729 ft
Report Wrong Elevation
Raw Report
METAR LTCR 170550Z 02009KT 9999 FEW040 SCT100 27/07 Q1018=

Extra information for LTCR:More info

Metar Taf Metar & Taf Last 4 Metars F.Rules Stats Wind Profile Meteogram Temp Stats Airport Information Weather charts Add Link Nearby VenuesMetar ALERT Operation Metar Decoded Social comments